sensor_id;sensor_type;location;lat;lon;timestamp;pressure;altitude;pressure_sealevel;temperature;humidity
70314;BME280;57725;47.526;18.986;2023-03-13T00:00:57;100001.53;;;6.70;97.53
70314;BME280;57725;47.526;18.986;2023-03-13T00:03:26;100018.81;;;6.71;98.07
70314;BME280;57725;47.526;18.986;2023-03-13T00:05:58;100006.72;;;6.70;97.96
70314;BME280;57725;47.526;18.986;2023-03-13T00:08:24;100004.97;;;6.71;97.63
70314;BME280;57725;47.526;18.986;2023-03-13T00:10:50;99996.44;;;6.67;97.88
70314;BME280;57725;47.526;18.986;2023-03-13T00:13:16;100011.91;;;6.70;97.57
70314;BME280;57725;47.526;18.986;2023-03-13T00:15:44;100006.72;;;6.70;97.66
70314;BME280;57725;47.526;18.986;2023-03-13T00:18:12;100004.97;;;6.71;97.53
70314;BME280;57725;47.526;18.986;2023-03-13T00:20:38;99995.44;;;6.71;98.06
70314;BME280;57725;47.526;18.986;2023-03-13T00:23:06;99998.06;;;6.70;97.83
70314;BME280;57725;47.526;18.986;2023-03-13T00:25:32;100003.22;;;6.71;97.96
70314;BME280;57725;47.526;18.986;2023-03-13T00:27:57;100005.88;;;6.70;97.78
70314;BME280;57725;47.526;18.986;2023-03-13T00:30:22;100007.56;;;6.71;98.10
70314;BME280;57725;47.526;18.986;2023-03-13T00:32:48;100002.41;;;6.69;98.05
70314;BME280;57725;47.526;18.986;2023-03-13T00:35:14;99998.94;;;6.70;97.52
70314;BME280;57725;47.526;18.986;2023-03-13T00:37:41;99995.47;;;6.70;98.12
70314;BME280;57725;47.526;18.986;2023-03-13T00:40:07;99992.00;;;6.71;98.00
70314;BME280;57725;47.526;18.986;2023-03-13T00:42:35;99995.53;;;6.68;97.81
70314;BME280;57725;47.526;18.986;2023-03-13T00:45:01;99989.44;;;6.69;98.10
70314;BME280;57725;47.526;18.986;2023-03-13T00:47:26;99989.38;;;6.71;97.92
70314;BME280;57725;47.526;18.986;2023-03-13T00:49:54;100004.97;;;6.71;97.78
70314;BME280;57725;47.526;18.986;2023-03-13T00:52:22;99990.34;;;6.68;98.06
70314;BME280;57725;47.526;18.986;2023-03-13T00:54:48;99990.28;;;6.70;97.62
70314;BME280;57725;47.526;18.986;2023-03-13T00:57:14;99979.88;;;6.70;97.84
70314;BME280;57725;47.526;18.986;2023-03-13T00:59:42;99972.16;;;6.68;98.01
70314;BME280;57725;47.526;18.986;2023-03-13T01:02:07;99960.84;;;6.69;97.75
70314;BME280;57725;47.526;18.986;2023-03-13T01:04:33;99943.59;;;6.68;97.99
70314;BME280;57725;47.526;18.986;2023-03-13T01:06:58;99954.81;;;6.69;98.19
70314;BME280;57725;47.526;18.986;2023-03-13T01:09:26;99956.50;;;6.70;97.84
70314;BME280;57725;47.526;18.986;2023-03-13T01:11:51;99966.03;;;6.69;97.75
70314;BME280;57725;47.526;18.986;2023-03-13T01:14:20;99956.50;;;6.70;97.74
70314;BME280;57725;47.526;18.986;2023-03-13T01:16:45;99950.44;;;6.69;97.83
70314;BME280;57725;47.526;18.986;2023-03-13T01:19:13;99951.31;;;6.70;97.92
70314;BME280;57725;47.526;18.986;2023-03-13T01:21:43;99951.41;;;6.67;98.00
70314;BME280;57725;47.526;18.986;2023-03-13T01:24:09;99940.91;;;6.70;98.20
70314;BME280;57725;47.526;18.986;2023-03-13T01:26:35;99934.88;;;6.69;98.15
70314;BME280;57725;47.526;18.986;2023-03-13T01:29:03;99926.28;;;6.67;98.23
70314;BME280;57725;47.526;18.986;2023-03-13T01:31:31;99925.31;;;6.70;98.05
70314;BME280;57725;47.526;18.986;2023-03-13T01:34:01;99921.06;;;6.69;97.83
70314;BME280;57725;47.526;18.986;2023-03-13T01:36:30;99928.84;;;6.69;98.33
70314;BME280;57725;47.526;18.986;2023-03-13T01:38:57;99928.00;;;6.68;98.31
70314;BME280;57725;47.526;18.986;2023-03-13T01:41:26;99913.25;;;6.69;98.31
70314;BME280;57725;47.526;18.986;2023-03-13T01:43:53;99925.41;;;6.68;98.02
70314;BME280;57725;47.526;18.986;2023-03-13T01:46:25;99915.00;;;6.68;98.11
70314;BME280;57725;47.526;18.986;2023-03-13T01:51:44;99925.44;;;6.67;98.21
70314;BME280;57725;47.526;18.986;2023-03-13T01:54:46;99922.78;;;6.68;97.92
70314;BME280;57725;47.526;18.986;2023-03-13T01:57:19;99916.75;;;6.68;97.88
70314;BME280;57725;47.526;18.986;2023-03-13T01:59:54;99909.00;;;6.66;98.06
70314;BME280;57725;47.526;18.986;2023-03-13T02:02:26;99912.34;;;6.70;98.18
70314;BME280;57725;47.526;18.986;2023-03-13T02:04:58;99906.34;;;6.68;98.35
70314;BME280;57725;47.526;18.986;2023-03-13T02:07:31;99902.91;;;6.67;97.99
70314;BME280;57725;47.526;18.986;2023-03-13T02:10:02;99898.56;;;6.68;98.39
70314;BME280;57725;47.526;18.986;2023-03-13T02:12:33;99907.22;;;6.68;98.16
70314;BME280;57725;47.526;18.986;2023-03-13T02:15:02;99906.34;;;6.68;98.39
70314;BME280;57725;47.526;18.986;2023-03-13T02:17:28;99909.81;;;6.68;97.93
70314;BME280;57725;47.526;18.986;2023-03-13T02:19:54;99902.00;;;6.68;98.23
70314;BME280;57725;47.526;18.986;2023-03-13T02:22:23;99889.03;;;6.68;97.74
70314;BME280;57725;47.526;18.986;2023-03-13T02:27:30;99894.28;;;6.65;97.82
70314;BME280;57725;47.526;18.986;2023-03-13T02:29:58;99893.38;;;6.68;97.91
70314;BME280;57725;47.526;18.986;2023-03-13T02:32:25;99892.50;;;6.67;98.26
70314;BME280;57725;47.526;18.986;2023-03-13T02:34:57;99900.28;;;6.69;98.37
70314;BME280;57725;47.526;18.986;2023-03-13T02:37:27;99891.69;;;6.65;98.23
70314;BME280;57725;47.526;18.986;2023-03-13T02:39:54;99902.00;;;6.68;98.03
70314;BME280;57725;47.526;18.986;2023-03-13T02:42:26;99896.81;;;6.68;98.22
70314;BME280;57725;47.526;18.986;2023-03-13T02:44:52;99901.16;;;6.68;97.92
70314;BME280;57725;47.526;18.986;2023-03-13T02:47:20;99902.00;;;6.68;97.90
70314;BME280;57725;47.526;18.986;2023-03-13T02:49:45;99905.47;;;6.69;98.52
70314;BME280;57725;47.526;18.986;2023-03-13T02:52:22;99902.06;;;6.67;98.27
70314;BME280;57725;47.526;18.986;2023-03-13T02:54:52;99910.66;;;6.69;98.31
70314;BME280;57725;47.526;18.986;2023-03-13T02:57:20;99909.81;;;6.68;98.23
70314;BME280;57725;47.526;18.986;2023-03-13T02:59:45;99914.16;;;6.68;98.44
70314;BME280;57725;47.526;18.986;2023-03-13T03:02:13;99920.19;;;6.68;98.02
70314;BME280;57725;47.526;18.986;2023-03-13T03:04:41;99919.34;;;6.68;98.27
70314;BME280;57725;47.526;18.986;2023-03-13T03:07:06;99926.28;;;6.67;98.26
70314;BME280;57725;47.526;18.986;2023-03-13T03:09:34;99920.28;;;6.65;97.76
70314;BME280;57725;47.526;18.986;2023-03-13T03:11:59;99920.22;;;6.67;98.40
70314;BME280;57725;47.526;18.986;2023-03-13T03:14:25;99915.94;;;6.66;97.99
70314;BME280;57725;47.526;18.986;2023-03-13T03:16:52;99915.00;;;6.68;97.99
70314;BME280;57725;47.526;18.986;2023-03-13T03:19:18;99930.59;;;6.68;98.61
70314;BME280;57725;47.526;18.986;2023-03-13T03:21:43;99931.44;;;6.69;98.33
70314;BME280;57725;47.526;18.986;2023-03-13T03:24:13;99931.44;;;6.69;98.54
70314;BME280;57725;47.526;18.986;2023-03-13T03:26:38;99923.66;;;6.69;98.45
70314;BME280;57725;47.526;18.986;2023-03-13T03:29:07;99928.84;;;6.69;98.40
70314;BME280;57725;47.526;18.986;2023-03-13T03:31:32;99922.84;;;6.67;98.36
70314;BME280;57725;47.526;18.986;2023-03-13T03:34:01;99934.88;;;6.69;98.11
70314;BME280;57725;47.526;18.986;2023-03-13T03:36:27;99924.47;;;6.69;98.63
70314;BME280;57725;47.526;18.986;2023-03-13T03:38:55;99917.59;;;6.68;98.42
70314;BME280;57725;47.526;18.986;2023-03-13T03:41:25;99922.72;;;6.70;98.09
70314;BME280;57725;47.526;18.986;2023-03-13T03:43:51;99921.88;;;6.69;98.47
70314;BME280;57725;47.526;18.986;2023-03-13T03:46:18;99933.97;;;6.70;98.30
70314;BME280;57725;47.526;18.986;2023-03-13T03:48:46;99940.91;;;6.70;98.33
70314;BME280;57725;47.526;18.986;2023-03-13T03:51:12;99940.91;;;6.70;97.99
70314;BME280;57725;47.526;18.986;2023-03-13T03:53:42;99940.91;;;6.70;98.31
70314;BME280;57725;47.526;18.986;2023-03-13T03:56:10;99947.84;;;6.69;98.44
70314;BME280;57725;47.526;18.986;2023-03-13T03:58:35;99957.34;;;6.70;98.09
70314;BME280;57725;47.526;18.986;2023-03-13T04:01:01;99952.22;;;6.69;98.00
70314;BME280;57725;47.526;18.986;2023-03-13T04:03:26;99956.59;;;6.67;98.16
70314;BME280;57725;47.526;18.986;2023-03-13T04:05:52;99957.47;;;6.67;98.64
70314;BME280;57725;47.526;18.986;2023-03-13T04:08:17;99954.75;;;6.70;98.05
70314;BME280;57725;47.526;18.986;2023-03-13T04:10:45;99957.34;;;6.70;98.43
70314;BME280;57725;47.526;18.986;2023-03-13T04:13:13;99964.28;;;6.70;98.15
70314;BME280;57725;47.526;18.986;2023-03-13T04:15:39;99957.34;;;6.70;98.23
70314;BME280;57725;47.526;18.986;2023-03-13T04:18:05;99961.69;;;6.70;98.40
70314;BME280;57725;47.526;18.986;2023-03-13T04:20:33;99960.03;;;6.69;97.95
70314;BME280;57725;47.526;18.986;2023-03-13T04:22:59;99973.84;;;6.69;98.24
70314;BME280;57725;47.526;18.986;2023-03-13T04:25:24;99954.13;;;6.62;98.15
70314;BME280;57725;47.526;18.986;2023-03-13T04:27:50;99970.41;;;6.69;98.14
70314;BME280;57725;47.526;18.986;2023-03-13T04:30:16;99973.84;;;6.69;97.98
70314;BME280;57725;47.526;18.986;2023-03-13T04:32:43;99971.25;;;6.69;98.30
70314;BME280;57725;47.526;18.986;2023-03-13T04:35:09;99964.38;;;6.68;97.94
70314;BME280;57725;47.526;18.986;2023-03-13T04:37:36;99971.25;;;6.69;98.08
70314;BME280;57725;47.526;18.986;2023-03-13T04:40:04;99969.50;;;6.70;98.29
70314;BME280;57725;47.526;18.986;2023-03-13T04:42:32;99951.41;;;6.67;98.57
70314;BME280;57725;47.526;18.986;2023-03-13T04:44:57;99959.94;;;6.70;98.10
70314;BME280;57725;47.526;18.986;2023-03-13T04:47:23;99965.16;;;6.70;98.21
70314;BME280;57725;47.526;18.986;2023-03-13T04:49:51;99973.00;;;6.69;98.14
70314;BME280;57725;47.526;18.986;2023-03-13T04:52:16;99971.31;;;6.68;98.56
70314;BME280;57725;47.526;18.986;2023-03-13T04:54:41;99970.47;;;6.66;98.40
70314;BME280;57725;47.526;18.986;2023-03-13T04:57:09;99982.56;;;6.68;98.00
70314;BME280;57725;47.526;18.986;2023-03-13T04:59:37;99983.44;;;6.67;98.24
70314;BME280;57725;47.526;18.986;2023-03-13T05:02:04;99988.59;;;6.69;98.20
70314;BME280;57725;47.526;18.986;2023-03-13T05:04:30;99988.59;;;6.69;98.47
70314;BME280;57725;47.526;18.986;2023-03-13T05:06:57;99986.00;;;6.69;98.39
70314;BME280;57725;47.526;18.986;2023-03-13T05:09:25;99993.72;;;6.70;98.39
70314;BME280;57725;47.526;18.986;2023-03-13T05:11:50;99988.59;;;6.69;98.58
70314;BME280;57725;47.526;18.986;2023-03-13T05:14:18;99992.88;;;6.70;98.27
70314;BME280;57725;47.526;18.986;2023-03-13T05:16:46;99994.63;;;6.69;98.30
70314;BME280;57725;47.526;18.986;2023-03-13T05:19:14;100000.66;;;6.70;98.45
70314;BME280;57725;47.526;18.986;2023-03-13T05:21:39;99999.00;;;6.69;98.40
70314;BME280;57725;47.526;18.986;2023-03-13T05:24:05;100003.34;;;6.68;98.08
70314;BME280;57725;47.526;18.986;2023-03-13T05:26:30;99999.81;;;6.69;98.45
70314;BME280;57725;47.526;18.986;2023-03-13T05:28:55;99999.03;;;6.67;98.08
70314;BME280;57725;47.526;18.986;2023-03-13T05:31:23;100011.91;;;6.70;98.54
70314;BME280;57725;47.526;18.986;2023-03-13T05:33:48;100011.06;;;6.70;98.19
70314;BME280;57725;47.526;18.986;2023-03-13T05:36:16;100016.25;;;6.70;98.41
70314;BME280;57725;47.526;18.986;2023-03-13T05:38:42;100012.81;;;6.69;98.50
70314;BME280;57725;47.526;18.986;2023-03-13T05:41:07;100011.91;;;6.70;98.38
70314;BME280;57725;47.526;18.986;2023-03-13T05:43:33;100018.00;;;6.69;98.21
70314;BME280;57725;47.526;18.986;2023-03-13T05:45:58;100002.47;;;6.68;98.12
70314;BME280;57725;47.526;18.986;2023-03-13T05:48:23;100014.59;;;6.69;98.20
70314;BME280;57725;47.526;18.986;2023-03-13T05:50:49;100014.59;;;6.69;98.23
70314;BME280;57725;47.526;18.986;2023-03-13T05:53:14;100013.72;;;6.68;98.55
70314;BME280;57725;47.526;18.986;2023-03-13T05:55:40;100011.13;;;6.68;98.47
70314;BME280;57725;47.526;18.986;2023-03-13T05:58:06;100014.59;;;6.69;98.34
70314;BME280;57725;47.526;18.986;2023-03-13T06:00:31;100019.78;;;6.69;98.53
70314;BME280;57725;47.526;18.986;2023-03-13T06:02:57;100017.19;;;6.69;98.58
70314;BME280;57725;47.526;18.986;2023-03-13T06:05:22;100011.16;;;6.67;98.19
70314;BME280;57725;47.526;18.986;2023-03-13T06:07:51;100007.69;;;6.68;98.20
70314;BME280;57725;47.526;18.986;2023-03-13T06:10:17;100015.41;;;6.69;98.60
70314;BME280;57725;47.526;18.986;2023-03-13T06:12:42;100009.38;;;6.69;98.19
70314;BME280;57725;47.526;18.986;2023-03-13T06:15:10;100001.59;;;6.69;98.47
70314;BME280;57725;47.526;18.986;2023-03-13T06:17:36;100007.59;;;6.69;98.52
70314;BME280;57725;47.526;18.986;2023-03-13T06:20:04;99992.94;;;6.68;98.25
70314;BME280;57725;47.526;18.986;2023-03-13T06:22:32;99990.28;;;6.70;98.48
70314;BME280;57725;47.526;18.986;2023-03-13T06:24:57;99994.63;;;6.69;98.40
70314;BME280;57725;47.526;18.986;2023-03-13T06:27:22;99993.81;;;6.69;98.21
70314;BME280;57725;47.526;18.986;2023-03-13T06:29:48;99999.00;;;6.69;98.15
70314;BME280;57725;47.526;18.986;2023-03-13T06:32:13;100004.22;;;6.67;98.53
70314;BME280;57725;47.526;18.986;2023-03-13T06:34:39;100000.75;;;6.68;98.40
70314;BME280;57725;47.526;18.986;2023-03-13T06:37:06;100002.41;;;6.69;98.18
70314;BME280;57725;47.526;18.986;2023-03-13T06:39:32;100006.72;;;6.70;98.58
70314;BME280;57725;47.526;18.986;2023-03-13T06:41:58;100009.31;;;6.70;98.28
70314;BME280;57725;47.526;18.986;2023-03-13T06:44:26;100006.72;;;6.70;98.49
70314;BME280;57725;47.526;18.986;2023-03-13T06:46:51;100008.47;;;6.70;98.29
70314;BME280;57725;47.526;18.986;2023-03-13T06:49:16;100007.56;;;6.71;98.26
70314;BME280;57725;47.526;18.986;2023-03-13T06:51:42;100002.38;;;6.71;98.50
70314;BME280;57725;47.526;18.986;2023-03-13T06:54:10;100004.97;;;6.71;98.65
70314;BME280;57725;47.526;18.986;2023-03-13T06:56:35;100005.84;;;6.71;98.65
70314;BME280;57725;47.526;18.986;2023-03-13T06:59:03;100005.84;;;6.71;98.77
70314;BME280;57725;47.526;18.986;2023-03-13T07:01:28;100000.66;;;6.70;98.34
70314;BME280;57725;47.526;18.986;2023-03-13T07:03:56;100005.81;;;6.73;98.38
70314;BME280;57725;47.526;18.986;2023-03-13T07:06:23;99998.03;;;6.71;98.78
70314;BME280;57725;47.526;18.986;2023-03-13T07:08:49;100004.09;;;6.72;98.37
70314;BME280;57725;47.526;18.986;2023-03-13T07:11:15;100008.38;;;6.74;98.71
70314;BME280;57725;47.526;18.986;2023-03-13T07:13:43;100003.19;;;6.73;98.55
70314;BME280;57725;47.526;18.986;2023-03-13T07:16:11;100007.47;;;6.75;98.22
70314;BME280;57725;47.526;18.986;2023-03-13T07:18:39;100002.28;;;6.75;98.38
70314;BME280;57725;47.526;18.986;2023-03-13T07:21:12;100001.47;;;6.73;98.62
70314;BME280;57725;47.526;18.986;2023-03-13T07:23:39;99994.47;;;6.75;98.68
70314;BME280;57725;47.526;18.986;2023-03-13T07:26:14;99991.03;;;6.75;98.46
70314;BME280;57725;47.526;18.986;2023-03-13T07:28:42;99990.13;;;6.76;98.72
70314;BME280;57725;47.526;18.986;2023-03-13T07:31:16;99990.13;;;6.76;98.89
70314;BME280;57725;47.526;18.986;2023-03-13T07:33:45;99996.16;;;6.78;98.88
70314;BME280;57725;47.526;18.986;2023-03-13T07:36:13;99985.75;;;6.78;98.79
70314;BME280;57725;47.526;18.986;2023-03-13T07:38:41;99990.06;;;6.79;98.52
70314;BME280;57725;47.526;18.986;2023-03-13T07:41:10;99985.72;;;6.79;98.93
70314;BME280;57725;47.526;18.986;2023-03-13T07:43:36;99977.97;;;6.78;98.86
70314;BME280;57725;47.526;18.986;2023-03-13T07:46:04;99989.19;;;6.80;98.79
70314;BME280;57725;47.526;18.986;2023-03-13T07:48:34;99982.25;;;6.80;98.76
70314;BME280;57725;47.526;18.986;2023-03-13T07:51:00;99977.03;;;6.80;98.82
70314;BME280;57725;47.526;18.986;2023-03-13T07:53:37;99971.84;;;6.80;98.83
70314;BME280;57725;47.526;18.986;2023-03-13T07:56:08;99975.22;;;6.82;98.63
70314;BME280;57725;47.526;18.986;2023-03-13T07:58:36;99963.13;;;6.81;98.72
70314;BME280;57725;47.526;18.986;2023-03-13T08:01:09;99970.88;;;6.83;98.94
70314;BME280;57725;47.526;18.986;2023-03-13T08:03:36;99959.59;;;6.84;98.78
70314;BME280;57725;47.526;18.986;2023-03-13T08:06:08;99950.09;;;6.83;98.58
70314;BME280;57725;47.526;18.986;2023-03-13T08:08:34;99945.75;;;6.83;98.76
70314;BME280;57725;47.526;18.986;2023-03-13T08:11:01;99949.22;;;6.84;98.60
70314;BME280;57725;47.526;18.986;2023-03-13T08:13:27;99945.75;;;6.83;98.65
70314;BME280;57725;47.526;18.986;2023-03-13T08:16:22;99939.66;;;6.84;98.97
70314;BME280;57725;47.526;18.986;2023-03-13T08:18:48;99940.56;;;6.83;98.67
70314;BME280;57725;47.526;18.986;2023-03-13T08:21:27;99929.31;;;6.83;98.98
70314;BME280;57725;47.526;18.986;2023-03-13T08:23:59;99934.47;;;6.84;98.67
70314;BME280;57725;47.526;18.986;2023-03-13T08:26:32;99934.44;;;6.86;98.70
70314;BME280;57725;47.526;18.986;2023-03-13T08:29:00;99922.34;;;6.85;98.82
70314;BME280;57725;47.526;18.986;2023-03-13T08:31:33;99917.09;;;6.86;98.78
70314;BME280;57725;47.526;18.986;2023-03-13T08:34:01;99917.13;;;6.85;98.62
70314;BME280;57725;47.526;18.986;2023-03-13T08:36:35;99918.84;;;6.86;98.57
70314;BME280;57725;47.526;18.986;2023-03-13T08:39:06;99921.38;;;6.89;98.94
70314;BME280;57725;47.526;18.986;2023-03-13T08:41:33;99920.56;;;6.87;98.72
70314;BME280;57725;47.526;18.986;2023-03-13T08:44:00;99915.31;;;6.88;98.58
70314;BME280;57725;47.526;18.986;2023-03-13T08:46:39;99926.56;;;6.89;98.52
70314;BME280;57725;47.526;18.986;2023-03-13T08:49:06;99919.63;;;6.89;98.80
70314;BME280;57725;47.526;18.986;2023-03-13T08:51:33;99909.22;;;6.89;98.92
70314;BME280;57725;47.526;18.986;2023-03-13T08:54:00;99912.69;;;6.90;98.62
70314;BME280;57725;47.526;18.986;2023-03-13T08:56:27;99917.84;;;6.92;98.78
70314;BME280;57725;47.526;18.986;2023-03-13T08:58:56;99902.25;;;6.92;98.88
70314;BME280;57725;47.526;18.986;2023-03-13T09:01:24;99894.44;;;6.92;98.62
70314;BME280;57725;47.526;18.986;2023-03-13T09:03:52;99897.91;;;6.92;98.66
70314;BME280;57725;47.526;18.986;2023-03-13T09:06:20;99902.19;;;6.93;98.68
70314;BME280;57725;47.526;18.986;2023-03-13T09:08:45;99899.56;;;6.93;98.74
70314;BME280;57725;47.526;18.986;2023-03-13T09:11:16;99897.84;;;6.94;98.68
70314;BME280;57725;47.526;18.986;2023-03-13T09:13:45;99901.25;;;6.96;98.82
70314;BME280;57725;47.526;18.986;2023-03-13T09:16:15;99896.94;;;6.95;98.83
70314;BME280;57725;47.526;18.986;2023-03-13T09:18:41;99897.78;;;6.95;98.98
70314;BME280;57725;47.526;18.986;2023-03-13T09:21:10;99895.16;;;6.97;98.84
70314;BME280;57725;47.526;18.986;2023-03-13T09:23:36;99885.63;;;6.97;98.42
70314;BME280;57725;47.526;18.986;2023-03-13T09:26:04;99876.97;;;6.97;98.74
70314;BME280;57725;47.526;18.986;2023-03-13T09:28:29;99883.88;;;6.98;98.90
70314;BME280;57725;47.526;18.986;2023-03-13T09:30:55;99883.88;;;6.98;98.42
70314;BME280;57725;47.526;18.986;2023-03-13T09:33:21;99883.84;;;6.99;98.44
70314;BME280;57725;47.526;18.986;2023-03-13T09:35:52;99885.56;;;6.99;98.88
70314;BME280;57725;47.526;18.986;2023-03-13T09:38:20;99877.78;;;6.99;98.72
70314;BME280;57725;47.526;18.986;2023-03-13T09:40:49;99876.00;;;7.01;98.84
70314;BME280;57725;47.526;18.986;2023-03-13T09:49:13;99893.25;;;7.03;98.71
70314;BME280;57725;47.526;18.986;2023-03-13T09:51:43;99892.34;;;7.04;98.41
70314;BME280;57725;47.526;18.986;2023-03-13T09:54:18;99878.44;;;7.05;98.31
70314;BME280;57725;47.526;18.986;2023-03-13T09:56:54;99879.28;;;7.06;98.52
70314;BME280;57725;47.526;18.986;2023-03-13T09:59:36;99861.94;;;7.06;98.53
70314;BME280;57725;47.526;18.986;2023-03-13T10:02:31;99859.31;;;7.08;98.41
70314;BME280;57725;47.526;18.986;2023-03-13T10:05:21;99856.69;;;7.09;98.49
70314;BME280;57725;47.526;18.986;2023-03-13T10:07:47;99846.22;;;7.11;98.52
70314;BME280;57725;47.526;18.986;2023-03-13T10:10:18;99852.28;;;7.11;98.46
70314;BME280;57725;47.526;18.986;2023-03-13T10:12:51;99847.97;;;7.10;98.29
70314;BME280;57725;47.526;18.986;2023-03-13T10:15:51;99853.09;;;7.13;98.62
70314;BME280;57725;47.526;18.986;2023-03-13T10:18:23;99852.22;;;7.14;98.42
70314;BME280;57725;47.526;18.986;2023-03-13T10:20:56;99844.44;;;7.13;98.74
70314;BME280;57725;47.526;18.986;2023-03-13T10:23:47;99841.75;;;7.16;98.39
70314;BME280;57725;47.526;18.986;2023-03-13T10:26:24;99837.38;;;7.16;98.29
70314;BME280;57725;47.526;18.986;2023-03-13T10:28:50;99824.38;;;7.16;98.41
70314;BME280;57725;47.526;18.986;2023-03-13T10:31:32;99819.19;;;7.16;98.77
70314;BME280;57725;47.526;18.986;2023-03-13T10:34:09;99826.91;;;7.19;98.41
70314;BME280;57725;47.526;18.986;2023-03-13T10:36:42;99827.72;;;7.21;98.60
70314;BME280;57725;47.526;18.986;2023-03-13T10:39:18;99832.06;;;7.21;98.12
70314;BME280;57725;47.526;18.986;2023-03-13T10:41:47;99824.22;;;7.22;98.44
70314;BME280;57725;47.526;18.986;2023-03-13T10:44:21;99819.03;;;7.22;98.45
70314;BME280;57725;47.526;18.986;2023-03-13T10:47:01;99823.28;;;7.25;98.18
70314;BME280;57725;47.526;18.986;2023-03-13T10:49:28;99818.09;;;7.25;98.33
70314;BME280;57725;47.526;18.986;2023-03-13T10:51:56;99812.00;;;7.26;98.34
70314;BME280;57725;47.526;18.986;2023-03-13T10:54:32;99811.91;;;7.27;98.23
70314;BME280;57725;47.526;18.986;2023-03-13T10:59:44;99801.47;;;7.29;98.00
70314;BME280;57725;47.526;18.986;2023-03-13T11:02:22;99802.28;;;7.31;98.29
70314;BME280;57725;47.526;18.986;2023-03-13T11:04:50;99790.13;;;7.32;98.20
70314;BME280;57725;47.526;18.986;2023-03-13T11:07:38;99775.38;;;7.32;98.20
70314;BME280;57725;47.526;18.986;2023-03-13T11:10:23;99771.88;;;7.33;98.15
70314;BME280;57725;47.526;18.986;2023-03-13T11:12:54;99773.59;;;7.34;98.02
70314;BME280;57725;47.526;18.986;2023-03-13T11:15:46;99763.19;;;7.34;98.12
70314;BME280;57725;47.526;18.986;2023-03-13T11:18:21;99769.19;;;7.36;98.00
70314;BME280;57725;47.526;18.986;2023-03-13T11:20:51;99775.25;;;7.37;97.89
70314;BME280;57725;47.526;18.986;2023-03-13T11:23:33;99757.81;;;7.39;98.08
70314;BME280;57725;47.526;18.986;2023-03-13T11:33:59;99758.59;;;7.42;97.83
70314;BME280;57725;47.526;18.986;2023-03-13T11:36:35;99742.97;;;7.42;97.82
70314;BME280;57725;47.526;18.986;2023-03-13T11:44:47;99732.50;;;7.45;97.80
70314;BME280;57725;47.526;18.986;2023-03-13T11:52:52;99723.75;;;7.48;97.81
70314;BME280;57725;47.526;18.986;2023-03-13T12:02:53;99695.81;;;9.19;72.13
70314;BME280;57725;47.526;18.986;2023-03-13T12:05:20;99692.00;;;9.48;68.84
70314;BME280;57725;47.526;18.986;2023-03-13T12:08:01;99696.78;;;9.59;67.26
70314;BME280;57725;47.526;18.986;2023-03-13T12:11:45;99682.06;;;9.78;68.80
70314;BME280;57725;47.526;18.986;2023-03-13T12:13:51;99679.31;;;9.81;69.38
70314;BME280;57725;47.526;18.986;2023-03-13T12:16:24;99682.53;;;9.67;68.60
70314;BME280;57725;47.526;18.986;2023-03-13T12:18:51;99667.91;;;9.63;69.32
70314;BME280;57725;47.526;18.986;2023-03-13T12:21:29;99669.25;;;9.72;68.73
70314;BME280;57725;47.526;18.986;2023-03-13T12:30:20;99631.66;;;9.96;67.40
70314;BME280;57725;47.526;18.986;2023-03-13T12:32:57;99635.50;;;10.08;68.22
70314;BME280;57725;47.526;18.986;2023-03-13T12:35:29;99628.50;;;10.08;66.09
70314;BME280;57725;47.526;18.986;2023-03-13T12:40:38;99617.34;;;10.25;65.68
70314;BME280;57725;47.526;18.986;2023-03-13T12:43:18;99619.66;;;10.31;65.09
70314;BME280;57725;47.526;18.986;2023-03-13T12:46:15;99600.31;;;10.35;64.91
70314;BME280;57725;47.526;18.986;2023-03-13T12:54:42;99575.22;;;10.50;63.68
70314;BME280;57725;47.526;18.986;2023-03-13T12:59:51;99567.63;;;10.45;63.26
70314;BME280;57725;47.526;18.986;2023-03-13T13:02:19;99563.09;;;10.49;64.83
70314;BME280;57725;47.526;18.986;2023-03-13T13:04:47;99564.81;;;10.67;65.43
70314;BME280;57725;47.526;18.986;2023-03-13T13:07:27;99564.69;;;10.87;63.58
70314;BME280;57725;47.526;18.986;2023-03-13T13:12:34;99567.03;;;10.94;63.88
70314;BME280;57725;47.526;18.986;2023-03-13T13:15:04;99577.94;;;10.84;64.36
70314;BME280;57725;47.526;18.986;2023-03-13T13:20:44;99571.22;;;10.79;63.57
70314;BME280;57725;47.526;18.986;2023-03-13T13:25:49;99558.69;;;10.85;63.54
70314;BME280;57725;47.526;18.986;2023-03-13T13:30:51;99542.66;;;10.93;63.78
70314;BME280;57725;47.526;18.986;2023-03-13T13:38:36;99524.97;;;11.15;62.69
70314;BME280;57725;47.526;18.986;2023-03-13T13:46:29;99527.56;;;10.98;63.15
70314;BME280;57725;47.526;18.986;2023-03-13T13:51:28;99514.72;;;11.11;64.75
70314;BME280;57725;47.526;18.986;2023-03-13T13:54:01;99508.72;;;11.09;63.94
70314;BME280;57725;47.526;18.986;2023-03-13T14:01:48;99493.13;;;11.07;63.90
70314;BME280;57725;47.526;18.986;2023-03-13T14:04:27;99495.94;;;11.03;64.65
70314;BME280;57725;47.526;18.986;2023-03-13T14:07:00;99507.78;;;11.10;63.76
70314;BME280;57725;47.526;18.986;2023-03-13T14:15:18;99498.41;;;11.23;63.42
70314;BME280;57725;47.526;18.986;2023-03-13T14:17:52;99508.31;;;10.99;63.38
70314;BME280;57725;47.526;18.986;2023-03-13T14:22:49;99498.53;;;11.20;62.98
70314;BME280;57725;47.526;18.986;2023-03-13T14:25:15;99498.94;;;11.12;64.34
70314;BME280;57725;47.526;18.986;2023-03-13T14:27:46;99512.03;;;11.12;62.92
70314;BME280;57725;47.526;18.986;2023-03-13T14:30:14;99495.84;;;11.21;63.53
70314;BME280;57725;47.526;18.986;2023-03-13T14:32:40;99493.31;;;11.20;62.70
70314;BME280;57725;47.526;18.986;2023-03-13T14:35:08;99492.72;;;11.15;62.96
70314;BME280;57725;47.526;18.986;2023-03-13T14:37:41;99498.47;;;11.21;63.86
70314;BME280;57725;47.526;18.986;2023-03-13T14:40:09;99496.41;;;11.28;64.55
70314;BME280;57725;47.526;18.986;2023-03-13T14:42:50;99487.78;;;11.09;64.25
70314;BME280;57725;47.526;18.986;2023-03-13T14:45:33;99493.78;;;11.11;65.30